sensor_id;sensor_type;location;lat;lon;timestamp;temperature;humidity
26517;DHT22;14190;51.342;6.338;2022-07-30T00:00:09;20.50;99.90
26517;DHT22;14190;51.342;6.338;2022-07-30T00:02:39;20.50;99.90
26517;DHT22;14190;51.342;6.338;2022-07-30T00:05:08;20.50;99.90
26517;DHT22;14190;51.342;6.338;2022-07-30T00:07:37;20.40;99.90
26517;DHT22;14190;51.342;6.338;2022-07-30T00:10:06;20.40;99.90
26517;DHT22;14190;51.342;6.338;2022-07-30T00:12:35;20.40;99.90
26517;DHT22;14190;51.342;6.338;2022-07-30T00:15:03;20.40;99.90
26517;DHT22;14190;51.342;6.338;2022-07-30T00:17:32;20.30;99.90
26517;DHT22;14190;51.342;6.338;2022-07-30T00:20:01;20.30;99.90
26517;DHT22;14190;51.342;6.338;2022-07-30T00:22:30;20.20;99.90
26517;DHT22;14190;51.342;6.338;2022-07-30T00:24:59;20.10;99.90
26517;DHT22;14190;51.342;6.338;2022-07-30T00:27:28;20.10;99.90
26517;DHT22;14190;51.342;6.338;2022-07-30T00:29:58;20.10;99.90
26517;DHT22;14190;51.342;6.338;2022-07-30T00:32:26;20.10;99.90
26517;DHT22;14190;51.342;6.338;2022-07-30T00:34:55;20.10;99.90
26517;DHT22;14190;51.342;6.338;2022-07-30T00:37:24;20.00;99.90
26517;DHT22;14190;51.342;6.338;2022-07-30T00:39:53;20.00;99.90
26517;DHT22;14190;51.342;6.338;2022-07-30T00:42:21;20.00;99.90
26517;DHT22;14190;51.342;6.338;2022-07-30T00:44:53;19.90;99.90
26517;DHT22;14190;51.342;6.338;2022-07-30T00:47:21;19.90;99.90
26517;DHT22;14190;51.342;6.338;2022-07-30T00:49:50;19.80;99.90
26517;DHT22;14190;51.342;6.338;2022-07-30T00:52:19;19.80;99.90
26517;DHT22;14190;51.342;6.338;2022-07-30T00:54:48;19.80;99.90
26517;DHT22;14190;51.342;6.338;2022-07-30T00:57:16;19.60;99.90
26517;DHT22;14190;51.342;6.338;2022-07-30T00:59:45;19.60;99.90
26517;DHT22;14190;51.342;6.338;2022-07-30T01:02:14;19.60;99.90
26517;DHT22;14190;51.342;6.338;2022-07-30T01:04:43;19.60;99.90
26517;DHT22;14190;51.342;6.338;2022-07-30T01:07:12;19.60;99.90
26517;DHT22;14190;51.342;6.338;2022-07-30T01:09:41;19.60;99.90
26517;DHT22;14190;51.342;6.338;2022-07-30T01:12:09;19.60;99.90
26517;DHT22;14190;51.342;6.338;2022-07-30T01:14:38;19.50;99.90
26517;DHT22;14190;51.342;6.338;2022-07-30T01:17:07;19.50;99.90
26517;DHT22;14190;51.342;6.338;2022-07-30T01:19:36;19.50;99.90
26517;DHT22;14190;51.342;6.338;2022-07-30T01:22:20;19.50;99.90
26517;DHT22;14190;51.342;6.338;2022-07-30T01:27:42;19.30;99.90
26517;DHT22;14190;51.342;6.338;2022-07-30T01:30:10;19.30;99.90
26517;DHT22;14190;51.342;6.338;2022-07-30T01:32:40;19.30;99.90
26517;DHT22;14190;51.342;6.338;2022-07-30T01:35:10;19.30;99.90
26517;DHT22;14190;51.342;6.338;2022-07-30T01:37:39;19.20;99.90
26517;DHT22;14190;51.342;6.338;2022-07-30T01:40:09;19.20;99.90
26517;DHT22;14190;51.342;6.338;2022-07-30T01:42:43;19.20;99.90
26517;DHT22;14190;51.342;6.338;2022-07-30T01:45:12;19.10;99.90
26517;DHT22;14190;51.342;6.338;2022-07-30T01:47:41;19.10;99.90
26517;DHT22;14190;51.342;6.338;2022-07-30T01:50:11;19.10;99.90
26517;DHT22;14190;51.342;6.338;2022-07-30T01:52:42;19.10;99.90
26517;DHT22;14190;51.342;6.338;2022-07-30T01:55:15;19.10;99.90
26517;DHT22;14190;51.342;6.338;2022-07-30T01:57:46;19.10;99.90
26517;DHT22;14190;51.342;6.338;2022-07-30T02:00:15;19.10;99.90
26517;DHT22;14190;51.342;6.338;2022-07-30T02:02:44;19.00;99.90
26517;DHT22;14190;51.342;6.338;2022-07-30T02:05:13;19.10;99.90
26517;DHT22;14190;51.342;6.338;2022-07-30T02:07:46;19.00;99.90
26517;DHT22;14190;51.342;6.338;2022-07-30T02:10:16;19.00;99.90
26517;DHT22;14190;51.342;6.338;2022-07-30T02:12:47;18.90;99.90
26517;DHT22;14190;51.342;6.338;2022-07-30T02:17:54;18.90;99.90
26517;DHT22;14190;51.342;6.338;2022-07-30T02:20:24;18.90;99.90
26517;DHT22;14190;51.342;6.338;2022-07-30T02:22:56;18.90;99.90
26517;DHT22;14190;51.342;6.338;2022-07-30T02:25:24;18.80;99.90
26517;DHT22;14190;51.342;6.338;2022-07-30T02:27:55;18.90;99.90
26517;DHT22;14190;51.342;6.338;2022-07-30T02:30:26;18.90;99.90
26517;DHT22;14190;51.342;6.338;2022-07-30T02:33:04;18.90;99.90
26517;DHT22;14190;51.342;6.338;2022-07-30T02:35:25;18.80;99.90
26517;DHT22;14190;51.342;6.338;2022-07-30T02:37:57;18.80;99.90
26517;DHT22;14190;51.342;6.338;2022-07-30T02:40:29;18.80;99.90
26517;DHT22;14190;51.342;6.338;2022-07-30T02:42:59;18.80;99.90
26517;DHT22;14190;51.342;6.338;2022-07-30T02:45:28;18.80;99.90
26517;DHT22;14190;51.342;6.338;2022-07-30T02:47:59;18.80;99.90
26517;DHT22;14190;51.342;6.338;2022-07-30T02:50:28;18.80;99.90
26517;DHT22;14190;51.342;6.338;2022-07-30T02:52:58;18.80;99.90
26517;DHT22;14190;51.342;6.338;2022-07-30T02:55:29;18.70;99.90
26517;DHT22;14190;51.342;6.338;2022-07-30T02:57:58;18.70;99.90
26517;DHT22;14190;51.342;6.338;2022-07-30T03:00:27;18.70;99.90
26517;DHT22;14190;51.342;6.338;2022-07-30T03:02:58;18.70;99.90
26517;DHT22;14190;51.342;6.338;2022-07-30T03:05:28;18.70;99.90
26517;DHT22;14190;51.342;6.338;2022-07-30T03:07:59;18.70;99.90
26517;DHT22;14190;51.342;6.338;2022-07-30T03:10:29;18.60;99.90
26517;DHT22;14190;51.342;6.338;2022-07-30T03:12:58;18.60;99.90
26517;DHT22;14190;51.342;6.338;2022-07-30T03:15:28;18.60;99.90
26517;DHT22;14190;51.342;6.338;2022-07-30T03:17:58;18.60;99.90
26517;DHT22;14190;51.342;6.338;2022-07-30T03:20:28;18.70;99.90
26517;DHT22;14190;51.342;6.338;2022-07-30T03:22:57;18.70;99.90
26517;DHT22;14190;51.342;6.338;2022-07-30T03:25:28;18.70;99.90
26517;DHT22;14190;51.342;6.338;2022-07-30T03:28:00;18.60;99.90
26517;DHT22;14190;51.342;6.338;2022-07-30T03:30:30;18.60;99.90
26517;DHT22;14190;51.342;6.338;2022-07-30T03:33:01;18.60;99.90
26517;DHT22;14190;51.342;6.338;2022-07-30T03:35:29;18.60;99.90
26517;DHT22;14190;51.342;6.338;2022-07-30T03:37:59;18.50;99.90
26517;DHT22;14190;51.342;6.338;2022-07-30T03:40:28;18.50;99.90
26517;DHT22;14190;51.342;6.338;2022-07-30T03:42:58;18.50;99.90
26517;DHT22;14190;51.342;6.338;2022-07-30T03:45:27;18.50;99.90
26517;DHT22;14190;51.342;6.338;2022-07-30T03:47:57;18.50;99.90
26517;DHT22;14190;51.342;6.338;2022-07-30T03:50:26;18.40;99.90
26517;DHT22;14190;51.342;6.338;2022-07-30T03:52:56;18.50;99.90
26517;DHT22;14190;51.342;6.338;2022-07-30T03:55:25;18.50;99.90
26517;DHT22;14190;51.342;6.338;2022-07-30T03:57:56;18.50;99.90
26517;DHT22;14190;51.342;6.338;2022-07-30T04:00:26;18.50;99.90
26517;DHT22;14190;51.342;6.338;2022-07-30T04:02:54;18.60;99.90
26517;DHT22;14190;51.342;6.338;2022-07-30T04:05:28;18.60;99.90
26517;DHT22;14190;51.342;6.338;2022-07-30T04:07:58;18.50;99.90
26517;DHT22;14190;51.342;6.338;2022-07-30T04:10:27;18.50;99.90
26517;DHT22;14190;51.342;6.338;2022-07-30T04:13:00;18.50;99.90
26517;DHT22;14190;51.342;6.338;2022-07-30T04:15:32;18.50;99.90
26517;DHT22;14190;51.342;6.338;2022-07-30T04:18:01;18.50;99.90
26517;DHT22;14190;51.342;6.338;2022-07-30T04:20:33;18.50;99.90
26517;DHT22;14190;51.342;6.338;2022-07-30T04:23:02;18.50;99.90
26517;DHT22;14190;51.342;6.338;2022-07-30T04:25:31;18.50;99.90
26517;DHT22;14190;51.342;6.338;2022-07-30T04:28:01;18.60;99.90
26517;DHT22;14190;51.342;6.338;2022-07-30T04:30:30;18.60;99.90
26517;DHT22;14190;51.342;6.338;2022-07-30T04:33:02;18.50;99.90
26517;DHT22;14190;51.342;6.338;2022-07-30T04:35:36;18.60;99.90
26517;DHT22;14190;51.342;6.338;2022-07-30T04:38:16;18.60;99.90
26517;DHT22;14190;51.342;6.338;2022-07-30T04:40:46;18.50;99.90
26517;DHT22;14190;51.342;6.338;2022-07-30T04:43:15;18.60;99.90
26517;DHT22;14190;51.342;6.338;2022-07-30T04:45:44;18.50;99.90
26517;DHT22;14190;51.342;6.338;2022-07-30T04:48:12;18.50;99.90
26517;DHT22;14190;51.342;6.338;2022-07-30T04:50:53;18.50;99.90
26517;DHT22;14190;51.342;6.338;2022-07-30T04:53:22;18.50;99.90
26517;DHT22;14190;51.342;6.338;2022-07-30T04:55:53;18.40;99.90
26517;DHT22;14190;51.342;6.338;2022-07-30T04:58:24;18.50;99.90
26517;DHT22;14190;51.342;6.338;2022-07-30T05:00:54;18.50;99.90
26517;DHT22;14190;51.342;6.338;2022-07-30T05:03:26;18.50;99.90
26517;DHT22;14190;51.342;6.338;2022-07-30T05:05:56;18.60;99.90
26517;DHT22;14190;51.342;6.338;2022-07-30T05:08:27;18.60;99.90
26517;DHT22;14190;51.342;6.338;2022-07-30T05:10:56;18.60;99.90
26517;DHT22;14190;51.342;6.338;2022-07-30T05:13:24;18.50;99.90
26517;DHT22;14190;51.342;6.338;2022-07-30T05:15:53;18.50;99.90
26517;DHT22;14190;51.342;6.338;2022-07-30T05:18:22;18.50;99.90
26517;DHT22;14190;51.342;6.338;2022-07-30T05:20:51;18.50;99.90
26517;DHT22;14190;51.342;6.338;2022-07-30T05:23:21;18.50;99.90
26517;DHT22;14190;51.342;6.338;2022-07-30T05:25:52;18.50;99.90
26517;DHT22;14190;51.342;6.338;2022-07-30T05:28:22;18.50;99.90
26517;DHT22;14190;51.342;6.338;2022-07-30T05:30:53;18.50;99.90
26517;DHT22;14190;51.342;6.338;2022-07-30T05:33:22;18.60;99.90
26517;DHT22;14190;51.342;6.338;2022-07-30T05:35:51;18.50;99.90
26517;DHT22;14190;51.342;6.338;2022-07-30T05:38:20;18.50;99.90
26517;DHT22;14190;51.342;6.338;2022-07-30T05:40:51;18.60;99.90
26517;DHT22;14190;51.342;6.338;2022-07-30T05:43:37;18.70;99.90
26517;DHT22;14190;51.342;6.338;2022-07-30T05:46:06;18.70;99.90
26517;DHT22;14190;51.342;6.338;2022-07-30T05:48:35;18.80;99.90
26517;DHT22;14190;51.342;6.338;2022-07-30T05:51:04;18.80;99.90
26517;DHT22;14190;51.342;6.338;2022-07-30T05:53:35;18.90;99.90
26517;DHT22;14190;51.342;6.338;2022-07-30T05:56:06;19.00;99.90
26517;DHT22;14190;51.342;6.338;2022-07-30T05:58:52;19.10;99.90
26517;DHT22;14190;51.342;6.338;2022-07-30T06:01:23;19.10;99.90
26517;DHT22;14190;51.342;6.338;2022-07-30T06:03:52;19.00;99.90
26517;DHT22;14190;51.342;6.338;2022-07-30T06:06:35;19.10;99.90
26517;DHT22;14190;51.342;6.338;2022-07-30T06:09:04;19.20;99.90
26517;DHT22;14190;51.342;6.338;2022-07-30T06:11:32;19.20;99.90
26517;DHT22;14190;51.342;6.338;2022-07-30T06:14:01;19.30;99.90
26517;DHT22;14190;51.342;6.338;2022-07-30T06:16:30;19.40;99.90
26517;DHT22;14190;51.342;6.338;2022-07-30T06:19:01;19.50;99.90
26517;DHT22;14190;51.342;6.338;2022-07-30T06:21:31;19.60;99.90
26517;DHT22;14190;51.342;6.338;2022-07-30T06:24:02;19.70;99.90
26517;DHT22;14190;51.342;6.338;2022-07-30T06:26:32;19.90;99.90
26517;DHT22;14190;51.342;6.338;2022-07-30T06:29:01;20.10;99.90
26517;DHT22;14190;51.342;6.338;2022-07-30T06:31:30;20.30;99.90
26517;DHT22;14190;51.342;6.338;2022-07-30T06:34:00;20.30;99.90
26517;DHT22;14190;51.342;6.338;2022-07-30T06:36:30;20.30;99.90
26517;DHT22;14190;51.342;6.338;2022-07-30T06:39:01;20.30;99.90
26517;DHT22;14190;51.342;6.338;2022-07-30T06:41:38;20.30;99.90
26517;DHT22;14190;51.342;6.338;2022-07-30T06:44:07;20.50;99.90
26517;DHT22;14190;51.342;6.338;2022-07-30T06:46:43;20.70;99.90
26517;DHT22;14190;51.342;6.338;2022-07-30T06:49:12;20.90;99.90
26517;DHT22;14190;51.342;6.338;2022-07-30T06:51:41;21.00;99.90
26517;DHT22;14190;51.342;6.338;2022-07-30T06:54:10;21.10;99.90
26517;DHT22;14190;51.342;6.338;2022-07-30T06:56:43;21.30;99.90
26517;DHT22;14190;51.342;6.338;2022-07-30T06:59:12;21.50;99.90
26517;DHT22;14190;51.342;6.338;2022-07-30T07:01:58;21.70;99.90
26517;DHT22;14190;51.342;6.338;2022-07-30T07:04:27;21.90;99.90
26517;DHT22;14190;51.342;6.338;2022-07-30T07:06:56;22.00;99.90
26517;DHT22;14190;51.342;6.338;2022-07-30T07:09:29;22.30;99.90
26517;DHT22;14190;51.342;6.338;2022-07-30T07:12:02;22.50;99.90
26517;DHT22;14190;51.342;6.338;2022-07-30T07:14:31;22.50;99.90
26517;DHT22;14190;51.342;6.338;2022-07-30T07:17:00;22.50;99.90
26517;DHT22;14190;51.342;6.338;2022-07-30T07:19:47;22.40;99.90
26517;DHT22;14190;51.342;6.338;2022-07-30T07:22:16;22.60;99.90
26517;DHT22;14190;51.342;6.338;2022-07-30T07:24:45;22.70;99.90
26517;DHT22;14190;51.342;6.338;2022-07-30T07:27:15;22.90;99.90
26517;DHT22;14190;51.342;6.338;2022-07-30T07:29:45;23.00;99.90
26517;DHT22;14190;51.342;6.338;2022-07-30T07:32:14;23.20;99.90
26517;DHT22;14190;51.342;6.338;2022-07-30T07:34:43;23.40;99.90
26517;DHT22;14190;51.342;6.338;2022-07-30T07:37:11;23.40;99.90
26517;DHT22;14190;51.342;6.338;2022-07-30T07:39:42;23.50;99.90
26517;DHT22;14190;51.342;6.338;2022-07-30T07:42:11;23.60;99.90
26517;DHT22;14190;51.342;6.338;2022-07-30T07:44:39;23.60;99.90
26517;DHT22;14190;51.342;6.338;2022-07-30T07:47:11;23.80;99.90
26517;DHT22;14190;51.342;6.338;2022-07-30T07:49:42;23.80;99.90
26517;DHT22;14190;51.342;6.338;2022-07-30T07:52:11;23.90;99.90
26517;DHT22;14190;51.342;6.338;2022-07-30T07:54:39;24.10;99.90
26517;DHT22;14190;51.342;6.338;2022-07-30T07:57:08;24.20;99.90
26517;DHT22;14190;51.342;6.338;2022-07-30T07:59:39;24.30;99.90
26517;DHT22;14190;51.342;6.338;2022-07-30T08:02:09;24.40;99.90
26517;DHT22;14190;51.342;6.338;2022-07-30T08:04:42;24.50;99.90
26517;DHT22;14190;51.342;6.338;2022-07-30T08:07:14;24.80;99.90
26517;DHT22;14190;51.342;6.338;2022-07-30T08:09:53;24.90;99.90
26517;DHT22;14190;51.342;6.338;2022-07-30T08:12:26;25.00;99.90
26517;DHT22;14190;51.342;6.338;2022-07-30T08:15:13;25.10;99.90
26517;DHT22;14190;51.342;6.338;2022-07-30T08:17:59;25.20;99.90
26517;DHT22;14190;51.342;6.338;2022-07-30T08:20:38;25.30;99.90
26517;DHT22;14190;51.342;6.338;2022-07-30T08:23:07;25.30;99.90
26517;DHT22;14190;51.342;6.338;2022-07-30T08:25:35;25.40;99.90
26517;DHT22;14190;51.342;6.338;2022-07-30T08:28:04;25.30;99.90
26517;DHT22;14190;51.342;6.338;2022-07-30T08:30:33;25.40;99.90
26517;DHT22;14190;51.342;6.338;2022-07-30T08:33:03;25.50;99.90
26517;DHT22;14190;51.342;6.338;2022-07-30T08:35:32;25.70;99.90
26517;DHT22;14190;51.342;6.338;2022-07-30T08:38:01;25.80;99.90
26517;DHT22;14190;51.342;6.338;2022-07-30T08:40:31;25.80;99.90
26517;DHT22;14190;51.342;6.338;2022-07-30T08:43:03;25.90;99.90
26517;DHT22;14190;51.342;6.338;2022-07-30T08:45:33;26.00;99.90
26517;DHT22;14190;51.342;6.338;2022-07-30T08:48:06;26.20;99.90
26517;DHT22;14190;51.342;6.338;2022-07-30T08:50:36;26.20;99.90
26517;DHT22;14190;51.342;6.338;2022-07-30T08:53:07;26.30;99.90
26517;DHT22;14190;51.342;6.338;2022-07-30T08:55:37;26.40;99.90
26517;DHT22;14190;51.342;6.338;2022-07-30T08:58:19;26.40;99.90
26517;DHT22;14190;51.342;6.338;2022-07-30T09:00:44;26.50;99.90
26517;DHT22;14190;51.342;6.338;2022-07-30T09:03:14;26.30;99.90
26517;DHT22;14190;51.342;6.338;2022-07-30T09:05:42;26.30;99.90
26517;DHT22;14190;51.342;6.338;2022-07-30T09:08:11;26.50;99.90
26517;DHT22;14190;51.342;6.338;2022-07-30T09:10:40;26.40;99.90
26517;DHT22;14190;51.342;6.338;2022-07-30T09:13:24;26.50;99.90
26517;DHT22;14190;51.342;6.338;2022-07-30T09:15:53;26.60;99.90
26517;DHT22;14190;51.342;6.338;2022-07-30T09:18:26;26.80;99.90
26517;DHT22;14190;51.342;6.338;2022-07-30T09:20:57;26.70;99.90
26517;DHT22;14190;51.342;6.338;2022-07-30T09:23:26;26.80;99.90
26517;DHT22;14190;51.342;6.338;2022-07-30T09:26:02;26.80;99.90
26517;DHT22;14190;51.342;6.338;2022-07-30T09:28:38;26.90;99.90
26517;DHT22;14190;51.342;6.338;2022-07-30T09:31:21;27.00;99.90
26517;DHT22;14190;51.342;6.338;2022-07-30T09:36:56;27.30;99.90
26517;DHT22;14190;51.342;6.338;2022-07-30T09:39:34;27.30;99.90
26517;DHT22;14190;51.342;6.338;2022-07-30T09:42:25;27.30;99.90
26517;DHT22;14190;51.342;6.338;2022-07-30T09:45:04;27.40;99.90
26517;DHT22;14190;51.342;6.338;2022-07-30T09:47:30;27.40;99.90
26517;DHT22;14190;51.342;6.338;2022-07-30T09:50:06;27.50;99.90
26517;DHT22;14190;51.342;6.338;2022-07-30T09:52:37;27.60;99.90
26517;DHT22;14190;51.342;6.338;2022-07-30T09:55:06;27.60;99.90
26517;DHT22;14190;51.342;6.338;2022-07-30T09:57:35;27.70;99.90
26517;DHT22;14190;51.342;6.338;2022-07-30T10:00:18;27.70;99.90
26517;DHT22;14190;51.342;6.338;2022-07-30T10:02:49;27.60;99.90
26517;DHT22;14190;51.342;6.338;2022-07-30T10:05:36;27.50;99.90
26517;DHT22;14190;51.342;6.338;2022-07-30T10:08:05;27.50;98.60
26517;DHT22;14190;51.342;6.338;2022-07-30T10:10:35;27.50;98.90
26517;DHT22;14190;51.342;6.338;2022-07-30T10:13:04;27.60;98.40
26517;DHT22;14190;51.342;6.338;2022-07-30T10:15:36;27.60;98.60
26517;DHT22;14190;51.342;6.338;2022-07-30T10:18:05;27.70;99.30
26517;DHT22;14190;51.342;6.338;2022-07-30T10:20:52;27.80;98.90
26517;DHT22;14190;51.342;6.338;2022-07-30T10:23:23;27.80;98.40
26517;DHT22;14190;51.342;6.338;2022-07-30T10:26:12;27.90;97.30
26517;DHT22;14190;51.342;6.338;2022-07-30T10:28:43;27.80;96.90
26517;DHT22;14190;51.342;6.338;2022-07-30T10:31:12;27.90;96.70
26517;DHT22;14190;51.342;6.338;2022-07-30T10:33:40;28.00;96.50
26517;DHT22;14190;51.342;6.338;2022-07-30T10:36:09;28.10;97.50
26517;DHT22;14190;51.342;6.338;2022-07-30T10:38:38;28.10;97.70
26517;DHT22;14190;51.342;6.338;2022-07-30T10:41:12;28.20;97.90
26517;DHT22;14190;51.342;6.338;2022-07-30T10:43:53;28.20;97.50
26517;DHT22;14190;51.342;6.338;2022-07-30T10:48:52;28.20;97.00
26517;DHT22;14190;51.342;6.338;2022-07-30T10:51:22;28.10;96.40
26517;DHT22;14190;51.342;6.338;2022-07-30T10:53:54;28.20;97.40
26517;DHT22;14190;51.342;6.338;2022-07-30T10:56:23;28.10;97.30
26517;DHT22;14190;51.342;6.338;2022-07-30T10:59:02;28.00;97.50
26517;DHT22;14190;51.342;6.338;2022-07-30T11:04:18;28.00;98.00
26517;DHT22;14190;51.342;6.338;2022-07-30T11:06:47;28.10;97.10
26517;DHT22;14190;51.342;6.338;2022-07-30T11:11:55;28.40;96.90
26517;DHT22;14190;51.342;6.338;2022-07-30T11:14:53;28.40;96.70
26517;DHT22;14190;51.342;6.338;2022-07-30T11:19:25;28.40;96.70
26517;DHT22;14190;51.342;6.338;2022-07-30T11:29:59;28.50;97.40
26517;DHT22;14190;51.342;6.338;2022-07-30T11:32:29;28.50;96.90
26517;DHT22;14190;51.342;6.338;2022-07-30T11:40:35;28.50;96.80
26517;DHT22;14190;51.342;6.338;2022-07-30T11:46:03;28.30;96.50
26517;DHT22;14190;51.342;6.338;2022-07-30T11:48:22;28.20;97.10
26517;DHT22;14190;51.342;6.338;2022-07-30T11:50:51;28.20;96.60
26517;DHT22;14190;51.342;6.338;2022-07-30T11:53:21;28.30;97.00
26517;DHT22;14190;51.342;6.338;2022-07-30T11:55:51;28.40;97.00
26517;DHT22;14190;51.342;6.338;2022-07-30T11:58:26;28.50;97.20
26517;DHT22;14190;51.342;6.338;2022-07-30T12:00:56;28.60;97.10
26517;DHT22;14190;51.342;6.338;2022-07-30T12:03:26;28.60;96.50
26517;DHT22;14190;51.342;6.338;2022-07-30T12:05:55;28.60;96.90
26517;DHT22;14190;51.342;6.338;2022-07-30T12:08:23;28.50;96.80
26517;DHT22;14190;51.342;6.338;2022-07-30T12:10:59;28.40;96.50
26517;DHT22;14190;51.342;6.338;2022-07-30T12:13:34;28.40;96.60
26517;DHT22;14190;51.342;6.338;2022-07-30T12:15:59;28.50;97.00
26517;DHT22;14190;51.342;6.338;2022-07-30T12:18:28;28.60;96.60
26517;DHT22;14190;51.342;6.338;2022-07-30T12:21:01;28.70;96.70
26517;DHT22;14190;51.342;6.338;2022-07-30T12:23:30;28.80;96.40
26517;DHT22;14190;51.342;6.338;2022-07-30T12:25:59;28.90;96.10
26517;DHT22;14190;51.342;6.338;2022-07-30T12:28:29;29.00;96.60
26517;DHT22;14190;51.342;6.338;2022-07-30T12:30:59;29.10;96.60
26517;DHT22;14190;51.342;6.338;2022-07-30T12:33:29;29.10;95.90
26517;DHT22;14190;51.342;6.338;2022-07-30T12:35:58;29.00;95.50
26517;DHT22;14190;51.342;6.338;2022-07-30T12:38:27;28.80;95.50
26517;DHT22;14190;51.342;6.338;2022-07-30T12:41:00;29.00;95.50
26517;DHT22;14190;51.342;6.338;2022-07-30T12:43:41;29.00;95.70
26517;DHT22;14190;51.342;6.338;2022-07-30T12:46:11;29.00;94.60
26517;DHT22;14190;51.342;6.338;2022-07-30T12:48:50;28.80;95.20
26517;DHT22;14190;51.342;6.338;2022-07-30T12:51:20;28.80;95.70
26517;DHT22;14190;51.342;6.338;2022-07-30T12:53:51;28.80;94.70
26517;DHT22;14190;51.342;6.338;2022-07-30T12:56:23;28.80;94.70
26517;DHT22;14190;51.342;6.338;2022-07-30T12:58:53;28.80;95.40
26517;DHT22;14190;51.342;6.338;2022-07-30T13:01:41;28.80;95.20
26517;DHT22;14190;51.342;6.338;2022-07-30T13:04:08;28.60;95.80
26517;DHT22;14190;51.342;6.338;2022-07-30T13:06:37;28.60;95.30
26517;DHT22;14190;51.342;6.338;2022-07-30T13:09:15;28.60;95.00
26517;DHT22;14190;51.342;6.338;2022-07-30T13:11:38;28.50;96.10
26517;DHT22;14190;51.342;6.338;2022-07-30T13:14:07;28.50;96.10
26517;DHT22;14190;51.342;6.338;2022-07-30T13:16:38;28.50;96.00
26517;DHT22;14190;51.342;6.338;2022-07-30T13:19:08;28.50;95.70
26517;DHT22;14190;51.342;6.338;2022-07-30T13:21:40;28.60;95.90
26517;DHT22;14190;51.342;6.338;2022-07-30T13:24:09;28.80;95.90
26517;DHT22;14190;51.342;6.338;2022-07-30T13:26:44;28.80;95.60
26517;DHT22;14190;51.342;6.338;2022-07-30T13:29:09;28.60;96.10
26517;DHT22;14190;51.342;6.338;2022-07-30T13:31:40;28.60;96.20
26517;DHT22;14190;51.342;6.338;2022-07-30T13:34:09;28.40;96.10
26517;DHT22;14190;51.342;6.338;2022-07-30T13:36:38;28.30;96.20
26517;DHT22;14190;51.342;6.338;2022-07-30T13:39:08;28.20;95.70
26517;DHT22;14190;51.342;6.338;2022-07-30T13:41:38;28.20;96.20
26517;DHT22;14190;51.342;6.338;2022-07-30T13:44:08;28.30;96.40
26517;DHT22;14190;51.342;6.338;2022-07-30T13:46:37;28.30;96.50
26517;DHT22;14190;51.342;6.338;2022-07-30T13:49:06;28.40;96.40
26517;DHT22;14190;51.342;6.338;2022-07-30T13:51:35;28.20;96.70
26517;DHT22;14190;51.342;6.338;2022-07-30T13:54:03;28.30;96.40
26517;DHT22;14190;51.342;6.338;2022-07-30T13:56:34;28.40;95.70
26517;DHT22;14190;51.342;6.338;2022-07-30T13:59:03;28.40;96.40
26517;DHT22;14190;51.342;6.338;2022-07-30T14:01:31;28.50;96.30
26517;DHT22;14190;51.342;6.338;2022-07-30T14:04:01;28.70;96.20
26517;DHT22;14190;51.342;6.338;2022-07-30T14:06:30;28.80;96.20
26517;DHT22;14190;51.342;6.338;2022-07-30T14:08:59;28.80;96.10
26517;DHT22;14190;51.342;6.338;2022-07-30T14:11:27;28.80;96.10
26517;DHT22;14190;51.342;6.338;2022-07-30T14:13:56;28.80;96.40
26517;DHT22;14190;51.342;6.338;2022-07-30T14:16:25;28.90;96.10
26517;DHT22;14190;51.342;6.338;2022-07-30T14:18:53;28.70;95.80
26517;DHT22;14190;51.342;6.338;2022-07-30T14:21:24;28.70;95.70
26517;DHT22;14190;51.342;6.338;2022-07-30T14:23:53;28.50;96.00
26517;DHT22;14190;51.342;6.338;2022-07-30T14:26:22;28.40;95.80
26517;DHT22;14190;51.342;6.338;2022-07-30T14:28:50;28.40;96.00
26517;DHT22;14190;51.342;6.338;2022-07-30T14:31:19;28.50;96.40
26517;DHT22;14190;51.342;6.338;2022-07-30T14:33:48;28.60;95.90
26517;DHT22;14190;51.342;6.338;2022-07-30T14:36:17;28.70;96.00
26517;DHT22;14190;51.342;6.338;2022-07-30T14:38:45;28.80;95.90
26517;DHT22;14190;51.342;6.338;2022-07-30T14:41:14;28.90;95.90
26517;DHT22;14190;51.342;6.338;2022-07-30T14:43:43;29.00;95.90
26517;DHT22;14190;51.342;6.338;2022-07-30T14:46:11;29.00;95.40
26517;DHT22;14190;51.342;6.338;2022-07-30T14:48:40;29.00;95.50
26517;DHT22;14190;51.342;6.338;2022-07-30T14:51:09;29.00;95.10
26517;DHT22;14190;51.342;6.338;2022-07-30T14:53:38;28.80;95.80
26517;DHT22;14190;51.342;6.338;2022-07-30T14:56:06;28.80;95.70
26517;DHT22;14190;51.342;6.338;2022-07-30T14:58:35;28.70;95.80
26517;DHT22;14190;51.342;6.338;2022-07-30T15:01:04;28.80;96.10
26517;DHT22;14190;51.342;6.338;2022-07-30T15:03:34;28.80;95.40
26517;DHT22;14190;51.342;6.338;2022-07-30T15:06:03;28.80;95.60
26517;DHT22;14190;51.342;6.338;2022-07-30T15:08:32;28.90;95.80
26517;DHT22;14190;51.342;6.338;2022-07-30T15:11:02;29.00;95.80
26517;DHT22;14190;51.342;6.338;2022-07-30T15:13:33;28.80;95.80
26517;DHT22;14190;51.342;6.338;2022-07-30T15:16:02;28.80;96.10
26517;DHT22;14190;51.342;6.338;2022-07-30T15:18:32;28.90;95.70
26517;DHT22;14190;51.342;6.338;2022-07-30T15:21:01;29.00;95.90
26517;DHT22;14190;51.342;6.338;2022-07-30T15:23:30;29.00;95.70
26517;DHT22;14190;51.342;6.338;2022-07-30T15:26:01;29.10;95.80
26517;DHT22;14190;51.342;6.338;2022-07-30T15:28:30;29.00;95.50
26517;DHT22;14190;51.342;6.338;2022-07-30T15:30:59;28.80;95.30
26517;DHT22;14190;51.342;6.338;2022-07-30T15:33:28;28.70;96.00
26517;DHT22;14190;51.342;6.338;2022-07-30T15:35:57;28.60;95.60
26517;DHT22;14190;51.342;6.338;2022-07-30T15:38:26;28.60;95.80
26517;DHT22;14190;51.342;6.338;2022-07-30T15:40:55;28.70;96.30
26517;DHT22;14190;51.342;6.338;2022-07-30T15:43:23;28.70;96.10
26517;DHT22;14190;51.342;6.338;2022-07-30T15:45:52;28.70;96.00
26517;DHT22;14190;51.342;6.338;2022-07-30T15:48:21;28.70;96.60
26517;DHT22;14190;51.342;6.338;2022-07-30T15:50:53;28.80;95.80
26517;DHT22;14190;51.342;6.338;2022-07-30T15:53:22;28.90;96.00
26517;DHT22;14190;51.342;6.338;2022-07-30T15:55:51;28.90;96.10
26517;DHT22;14190;51.342;6.338;2022-07-30T15:58:20;28.80;96.10
26517;DHT22;14190;51.342;6.338;2022-07-30T16:00:51;28.70;96.40
26517;DHT22;14190;51.342;6.338;2022-07-30T16:03:20;28.60;96.00
26517;DHT22;14190;51.342;6.338;2022-07-30T16:05:49;28.60;96.00
26517;DHT22;14190;51.342;6.338;2022-07-30T16:08:18;28.60;95.70
26517;DHT22;14190;51.342;6.338;2022-07-30T16:10:47;28.60;96.00
26517;DHT22;14190;51.342;6.338;2022-07-30T16:13:17;28.60;96.10
26517;DHT22;14190;51.342;6.338;2022-07-30T16:15:46;28.60;96.10
26517;DHT22;14190;51.342;6.338;2022-07-30T16:18:14;28.70;96.10
26517;DHT22;14190;51.342;6.338;2022-07-30T16:20:43;28.70;96.30
26517;DHT22;14190;51.342;6.338;2022-07-30T16:23:15;28.80;96.00
26517;DHT22;14190;51.342;6.338;2022-07-30T16:25:43;28.80;96.30